Graig Cardiff — 2FON6 — position and weather

sailwx.info

Track history (hours):
 
Tides and Currents Weather Stations Pressure Air Temp Water Temp Dewpoint Dewpoint Depression Visibility Wind Speed Wind Dir Waves Ship Positions

Graig Cardiff

Last reported at 2018-May-17 19:36 UTC. Time now 2018-Jun-22 07:44 UTC.
Position N 09°13' W 079°55'.
Warning: this ship's position is 35 days out of date.

Length 180 m; draft 10.3 m.

Type: Cargo ship. MMSI: 235093065.

Date/timePositionNaut miles runAvg speedWind from/ knotsBaromVisibWave heightAir tempDewpointWater temp
2018-May-17 19:36N 09°13' W 079°55'1 7.4
2018-May-17 19:30N 09°13' W 079°55'1 0.1
2018-May-17 15:32N 09°14' W 079°56'0 0.0
2018-May-17 15:11N 09°14' W 079°56'0 0.0
2018-May-17 12:32N 09°14' W 079°56'0 0.0
2018-May-17 12:08N 09°14' W 079°56'0 0.0
2018-May-17 11:59N 09°14' W 079°56'0 0.0
2018-May-17 07:23N 09°14' W 079°56'0 0.0
2018-May-17 02:56N 09°14' W 079°56'0 0.1
2018-May-17 02:11N 09°14' W 079°56'0 1.4
2018-May-17 02:00N 09°14' W 079°55'2 4.3
2018-May-17 01:30N 09°16' W 079°55'0 0.6
2018-May-17 01:00N 09°16' W 079°55'0 0.4
2018-May-17 00:30N 09°17' W 079°55'0 0.6
2018-May-17 00:00N 09°17' W 079°55'2 3.4
2018-May-16 23:30N 09°19' W 079°55'4 7.8
2018-May-16 23:00N 09°22' W 079°55'1 1.0
2018-May-16 22:30N 09°23' W 079°56'0 0.1
2018-May-16 22:00N 09°23' W 079°56'0 0.0
2018-May-16 21:30N 09°23' W 079°56'0 0.0
2018-May-16 21:00N 09°23' W 079°56'0 0.1
2018-May-16 20:30N 09°23' W 079°56'0 0.1
2018-May-16 20:00N 09°23' W 079°56'0 0.0
2018-May-16 19:30N 09°23' W 079°56'0 0.0
2018-May-16 19:00N 09°23' W 079°56'0 0.1
2018-May-16 18:30N 09°23' W 079°56'0 0.0
2018-May-16 18:00N 09°23' W 079°56'0 0.0
2018-May-16 17:30N 09°23' W 079°56'0 0.0
2018-May-16 17:00N 09°23' W 079°56'0 0.1
2018-May-16 16:30N 09°23' W 079°56'0 0.1
2018-May-16 15:57N 09°23' W 079°56'0 0.1
2018-May-16 15:30N 09°23' W 079°56'0 0.0
2018-May-16 15:00N 09°23' W 079°56'0 0.0
2018-May-16 14:30N 09°23' W 079°56'0 0.1
2018-May-16 14:00N 09°23' W 079°56'0 0.1
2018-May-16 13:15N 09°23' W 079°56'0 0.1
2018-May-16 13:00N 09°23' W 079°56'0 0.0
2018-May-16 12:30N 09°23' W 079°56'0 0.0
2018-May-16 12:00N 09°23' W 079°56'0 0.0
2018-May-16 11:30N 09°23' W 079°56'0 0.0
2018-May-16 11:00N 09°23' W 079°56'0 0.0
2018-May-16 10:30N 09°23' W 079°56'0 0.0
2018-May-16 10:00N 09°23' W 079°56'0 0.0
2018-May-16 09:30N 09°23' W 079°56'0 0.1
2018-May-16 08:54N 09°23' W 079°56'0 0.1
2018-May-16 08:30N 09°23' W 079°56'0 0.1
2018-May-16 08:00N 09°23' W 079°56'0 0.1
2018-May-16 07:30N 09°23' W 079°56'0 0.1
2018-May-16 07:00N 09°23' W 079°56'0 0.0
2018-May-16 06:30N 09°23' W 079°56'0 0.1
2018-May-16 06:00N 09°23' W 079°56'0 0.0
2018-May-16 05:30N 09°23' W 079°56'0 0.0
2018-May-16 05:00N 09°23' W 079°56'0 0.0
2018-May-16 04:30N 09°23' W 079°56'0 0.1
2018-May-16 04:00N 09°23' W 079°56'0 0.0
2018-May-16 03:30N 09°23' W 079°56'0 0.0
2018-May-16 03:00N 09°23' W 079°56'0 0.1
2018-May-16 02:30N 09°23' W 079°56'0 0.1
2018-May-16 02:00N 09°23' W 079°56'0 0.4
2018-May-16 01:30N 09°23' W 079°56'2 3.1
2018-May-16 01:00N 09°24' W 079°55'1 2.8
2018-May-16 00:30N 09°26' W 079°55'1 2.7
2018-May-16 00:00N 09°27' W 079°55'2 3.4
2018-May-15 23:27N 09°28' W 079°57'0 0.5
2018-May-15 22:59N 09°28' W 079°57'0 0.0
2018-May-15 22:18N 09°28' W 079°57'0 0.0
2018-May-15 20:12N 09°28' W 079°57'0 0.1
2018-May-15 20:00N 09°28' W 079°57'0 0.1
2018-May-15 17:09N 09°28' W 079°57'0 0.1
2018-May-15 16:51N 09°28' W 079°57'0 0.0
2018-May-15 16:27N 09°28' W 079°57'0 0.1
2018-May-15 15:57N 09°28' W 079°57'0 0.0
2018-May-15 13:51N 09°28' W 079°57'0 0.0
2018-May-15 13:24N 09°28' W 079°57'0 0.0
2018-May-15 12:54N 09°28' W 079°57'0 0.1
2018-May-15 12:21N 09°28' W 079°57'0 0.0
2018-May-15 12:00N 09°28' W 079°57'0 0.0
2018-May-15 11:30N 09°28' W 079°57'0 0.0
2018-May-14 19:39N 09°28' W 079°57'0 0.3
2018-May-14 19:30N 09°28' W 079°57'1 2.1
2018-May-14 19:00N 09°29' W 079°56'3 6.9
2018-May-14 18:30N 09°32' W 079°54'  
Track history (hours):
 
Tides and Currents Weather Stations Pressure Air Temp Water Temp Dewpoint Dewpoint Depression Visibility Wind Speed Wind Dir Waves Ship Positions

Graig Cardiff

Last reported at 2018-May-17 19:36 UTC. Time now 2018-Jun-22 07:44 UTC.
Position N 09°13' W 079°55'.
Warning: this ship's position is 35 days out of date.

Length 180 m; draft 10.3 m.

Type: Cargo ship. MMSI: 235093065.

Date/timePositionNaut miles runAvg speedWind from/ knotsBaromVisibWave heightAir tempDewpointWater temp
2018-May-17 19:36N 09°13' W 079°55'1 7.4
2018-May-17 19:30N 09°13' W 079°55'1 0.1
2018-May-17 15:32N 09°14' W 079°56'0 0.0
2018-May-17 15:11N 09°14' W 079°56'0 0.0
2018-May-17 12:32N 09°14' W 079°56'0 0.0
2018-May-17 12:08N 09°14' W 079°56'0 0.0
2018-May-17 11:59N 09°14' W 079°56'0 0.0
2018-May-17 07:23N 09°14' W 079°56'0 0.0
2018-May-17 02:56N 09°14' W 079°56'0 0.1
2018-May-17 02:11N 09°14' W 079°56'0 1.4
2018-May-17 02:00N 09°14' W 079°55'2 4.3
2018-May-17 01:30N 09°16' W 079°55'0 0.6
2018-May-17 01:00N 09°16' W 079°55'0 0.4
2018-May-17 00:30N 09°17' W 079°55'0 0.6
2018-May-17 00:00N 09°17' W 079°55'2 3.4
2018-May-16 23:30N 09°19' W 079°55'4 7.8
2018-May-16 23:00N 09°22' W 079°55'1 1.0
2018-May-16 22:30N 09°23' W 079°56'0 0.1
2018-May-16 22:00N 09°23' W 079°56'0 0.0
2018-May-16 21:30N 09°23' W 079°56'0 0.0
2018-May-16 21:00N 09°23' W 079°56'0 0.1
2018-May-16 20:30N 09°23' W 079°56'0 0.1
2018-May-16 20:00N 09°23' W 079°56'0 0.0
2018-May-16 19:30N 09°23' W 079°56'0 0.0
2018-May-16 19:00N 09°23' W 079°56'0 0.1
2018-May-16 18:30N 09°23' W 079°56'0 0.0
2018-May-16 18:00N 09°23' W 079°56'0 0.0
2018-May-16 17:30N 09°23' W 079°56'0 0.0
2018-May-16 17:00N 09°23' W 079°56'0 0.1
2018-May-16 16:30N 09°23' W 079°56'0 0.1
2018-May-16 15:57N 09°23' W 079°56'0 0.1
2018-May-16 15:30N 09°23' W 079°56'0 0.0
2018-May-16 15:00N 09°23' W 079°56'0 0.0
2018-May-16 14:30N 09°23' W 079°56'0 0.1
2018-May-16 14:00N 09°23' W 079°56'0 0.1
2018-May-16 13:15N 09°23' W 079°56'0 0.1
2018-May-16 13:00N 09°23' W 079°56'0 0.0
2018-May-16 12:30N 09°23' W 079°56'0 0.0
2018-May-16 12:00N 09°23' W 079°56'0 0.0
2018-May-16 11:30N 09°23' W 079°56'0 0.0
2018-May-16 11:00N 09°23' W 079°56'0 0.0
2018-May-16 10:30N 09°23' W 079°56'0 0.0
2018-May-16 10:00N 09°23' W 079°56'0 0.0
2018-May-16 09:30N 09°23' W 079°56'0 0.1
2018-May-16 08:54N 09°23' W 079°56'0 0.1
2018-May-16 08:30N 09°23' W 079°56'0 0.1
2018-May-16 08:00N 09°23' W 079°56'0 0.1
2018-May-16 07:30N 09°23' W 079°56'0 0.1
2018-May-16 07:00N 09°23' W 079°56'0 0.0
2018-May-16 06:30N 09°23' W 079°56'0 0.1
2018-May-16 06:00N 09°23' W 079°56'0 0.0
2018-May-16 05:30N 09°23' W 079°56'0 0.0
2018-May-16 05:00N 09°23' W 079°56'0 0.0
2018-May-16 04:30N 09°23' W 079°56'0 0.1
2018-May-16 04:00N 09°23' W 079°56'0 0.0
2018-May-16 03:30N 09°23' W 079°56'0 0.0
2018-May-16 03:00N 09°23' W 079°56'0 0.1
2018-May-16 02:30N 09°23' W 079°56'0 0.1
2018-May-16 02:00N 09°23' W 079°56'0 0.4
2018-May-16 01:30N 09°23' W 079°56'2 3.1
2018-May-16 01:00N 09°24' W 079°55'1 2.8
2018-May-16 00:30N 09°26' W 079°55'1 2.7
2018-May-16 00:00N 09°27' W 079°55'2 3.4
2018-May-15 23:27N 09°28' W 079°57'0 0.5
2018-May-15 22:59N 09°28' W 079°57'0 0.0
2018-May-15 22:18N 09°28' W 079°57'0 0.0
2018-May-15 20:12N 09°28' W 079°57'0 0.1
2018-May-15 20:00N 09°28' W 079°57'0 0.1
2018-May-15 17:09N 09°28' W 079°57'0 0.1
2018-May-15 16:51N 09°28' W 079°57'0 0.0
2018-May-15 16:27N 09°28' W 079°57'0 0.1
2018-May-15 15:57N 09°28' W 079°57'0 0.0
2018-May-15 13:51N 09°28' W 079°57'0 0.0
2018-May-15 13:24N 09°28' W 079°57'0 0.0
2018-May-15 12:54N 09°28' W 079°57'0 0.1
2018-May-15 12:21N 09°28' W 079°57'0 0.0
2018-May-15 12:00N 09°28' W 079°57'0 0.0
2018-May-15 11:30N 09°28' W 079°57'0 0.0
2018-May-14 19:39N 09°28' W 079°57'0 0.3
2018-May-14 19:30N 09°28' W 079°57'1 2.1
2018-May-14 19:00N 09°29' W 079°56'3 6.9
2018-May-14 18:30N 09°32' W 079°54'  

Dump ship's entire track history